createdAt,value
2022-12-15T00:00:01.134Z,27.35
2022-12-15T00:02:22.278Z,27.70
2022-12-15T00:04:44.185Z,27.73
2022-12-15T00:07:04.401Z,25.60
2022-12-15T00:09:29.363Z,29.77
2022-12-15T00:11:51.051Z,31.23
2022-12-15T00:14:11.284Z,30.10
2022-12-15T00:16:32.646Z,29.48
2022-12-15T00:18:53.129Z,27.35
2022-12-15T00:21:17.410Z,29.10
2022-12-15T00:23:38.310Z,28.73
2022-12-15T00:25:58.713Z,30.48
2022-12-15T00:28:18.951Z,34.97
2022-12-15T00:30:39.514Z,31.02
2022-12-15T00:33:00.191Z,29.92
2022-12-15T00:35:20.489Z,31.17
2022-12-15T00:37:42.134Z,30.52
2022-12-15T00:39:44.929Z,25.17
2022-12-15T00:41:47.751Z,32.90
2022-12-15T00:43:50.546Z,28.45
2022-12-15T00:46:09.950Z,30.65
2022-12-15T00:48:12.768Z,30.35
2022-12-15T00:50:33.056Z,30.42
2022-12-15T00:52:55.124Z,29.58
2022-12-15T00:55:15.819Z,29.08
2022-12-15T00:57:36.355Z,28.48
2022-12-15T00:59:56.605Z,26.58
2022-12-15T01:02:16.903Z,26.98
2022-12-15T01:04:37.731Z,28.40
2022-12-15T01:06:58.103Z,27.90
2022-12-15T01:09:19.888Z,27.23
2022-12-15T01:11:40.376Z,27.05
2022-12-15T01:14:00.665Z,27.88
2022-12-15T01:16:20.853Z,28.70
2022-12-15T01:18:41.377Z,31.15
2022-12-15T01:20:44.205Z,30.50
2022-12-15T01:22:48.695Z,27.83
2022-12-15T01:24:52.902Z,28.08
2022-12-15T01:26:55.700Z,28.67
2022-12-15T01:28:58.567Z,31.90
2022-12-15T01:31:01.723Z,28.92
2022-12-15T01:33:04.820Z,30.80
2022-12-15T01:35:08.762Z,32.85
2022-12-15T01:37:11.609Z,32.47
2022-12-15T01:39:13.544Z,30.48
2022-12-15T01:41:17.694Z,28.52
2022-12-15T01:43:23.475Z,28.02
2022-12-15T01:45:50.217Z,25.30
2022-12-15T01:47:54.715Z,29.02
2022-12-15T01:49:57.635Z,25.48
2022-12-15T01:52:03.844Z,30.00
2022-12-15T01:54:10.928Z,29.85
2022-12-15T01:56:14.101Z,28.23
2022-12-15T01:58:21.118Z,30.60
2022-12-15T02:00:24.037Z,27.45
2022-12-15T02:02:31.030Z,25.40
2022-12-15T02:04:37.815Z,26.77
2022-12-15T02:06:40.592Z,27.27
2022-12-15T02:08:48.198Z,30.48
2022-12-15T02:11:08.924Z,32.47
2022-12-15T02:13:23.045Z,26.65
2022-12-15T02:15:30.963Z,26.73
2022-12-15T02:17:41.283Z,28.10
2022-12-15T02:20:10.833Z,27.63
2022-12-15T02:22:27.338Z,28.63
2022-12-15T02:24:52.171Z,28.52
2022-12-15T02:27:26.438Z,28.38
2022-12-15T02:29:53.840Z,29.13
2022-12-15T02:32:01.623Z,29.42
2022-12-15T02:34:12.336Z,29.83
2022-12-15T02:36:19.862Z,28.83
2022-12-15T02:38:35.327Z,30.95
2022-12-15T02:42:46.733Z,30.02
2022-12-15T02:44:53.453Z,27.42
2022-12-15T02:47:15.214Z,30.42
2022-12-15T02:49:26.217Z,31.00
2022-12-15T02:51:40.941Z,30.50
2022-12-15T02:54:05.803Z,33.30
2022-12-15T02:56:16.341Z,30.52
2022-12-15T02:58:26.833Z,31.70
2022-12-15T03:00:34.350Z,31.85
2022-12-15T03:02:42.117Z,29.88
2022-12-15T03:04:45.457Z,31.02
2022-12-15T03:07:00.590Z,32.38
2022-12-15T03:09:04.359Z,29.50
2022-12-15T03:11:07.410Z,32.33
2022-12-15T03:13:10.274Z,38.40
2022-12-15T03:15:13.220Z,36.17
2022-12-15T03:17:15.999Z,36.40
2022-12-15T03:19:20.422Z,32.72
2022-12-15T03:21:23.196Z,44.50
2022-12-15T03:23:26.127Z,30.00
2022-12-15T03:25:29.297Z,32.05
2022-12-15T03:27:32.221Z,32.42
2022-12-15T03:29:35.075Z,33.13
2022-12-15T03:31:37.951Z,33.20
2022-12-15T03:33:41.001Z,29.65
2022-12-15T03:35:45.302Z,35.58
2022-12-15T03:37:48.154Z,32.95
2022-12-15T03:39:52.546Z,31.80
2022-12-15T03:41:55.327Z,31.25
2022-12-15T03:43:58.124Z,34.78
2022-12-15T03:46:01.040Z,32.83
2022-12-15T03:48:03.865Z,30.15
2022-12-15T03:50:07.271Z,31.48
2022-12-15T03:52:11.358Z,33.88
2022-12-15T03:54:14.389Z,34.15
2022-12-15T03:56:17.911Z,34.78
2022-12-15T03:58:21.020Z,30.98
2022-12-15T04:00:25.450Z,32.53
2022-12-15T04:02:28.595Z,32.33
2022-12-15T04:04:31.513Z,30.25
2022-12-15T04:06:34.281Z,31.33
2022-12-15T04:08:38.546Z,28.67
2022-12-15T04:10:41.355Z,30.63
2022-12-15T04:12:44.238Z,32.88
2022-12-15T04:14:46.962Z,29.13
2022-12-15T04:16:52.452Z,36.10
2022-12-15T04:19:09.249Z,29.77
2022-12-15T04:21:12.025Z,32.95
2022-12-15T04:23:15.132Z,30.80
2022-12-15T04:25:38.661Z,33.70
2022-12-15T04:28:01.701Z,32.33
2022-12-15T04:30:22.915Z,31.60
2022-12-15T04:32:43.234Z,37.47
2022-12-15T04:35:03.452Z,30.33
2022-12-15T04:37:26.179Z,30.10
2022-12-15T04:39:46.913Z,29.75
2022-12-15T04:42:08.802Z,32.70
2022-12-15T04:44:29.827Z,28.23
2022-12-15T04:46:50.375Z,30.08
2022-12-15T04:49:10.786Z,30.00
2022-12-15T04:51:31.289Z,31.30
2022-12-15T04:53:51.445Z,31.67
2022-12-15T04:56:17.953Z,29.00
2022-12-15T04:58:40.553Z,33.58
2022-12-15T05:01:00.950Z,30.83
2022-12-15T05:03:23.353Z,28.83
2022-12-15T05:05:43.624Z,32.97
2022-12-15T05:08:04.199Z,28.75
2022-12-15T05:10:25.913Z,31.85
2022-12-15T05:12:46.353Z,32.25
2022-12-15T05:15:08.136Z,34.13
2022-12-15T05:17:28.600Z,32.88
2022-12-15T05:19:49.009Z,31.73
2022-12-15T05:22:09.282Z,31.98
2022-12-15T05:24:29.872Z,35.38
2022-12-15T05:26:53.052Z,29.98
2022-12-15T05:29:13.885Z,30.02
2022-12-15T05:31:35.634Z,32.25
2022-12-15T05:33:38.622Z,31.83
2022-12-15T05:35:41.454Z,33.00
2022-12-15T05:37:44.223Z,33.42
2022-12-15T05:39:46.997Z,33.50
2022-12-15T05:41:50.758Z,33.72
2022-12-15T05:43:53.529Z,34.90
2022-12-15T05:45:56.394Z,31.60
2022-12-15T05:48:00.638Z,34.45
2022-12-15T05:50:03.739Z,33.05
2022-12-15T05:52:08.128Z,32.83
2022-12-15T05:54:11.688Z,34.50
2022-12-15T05:56:15.962Z,32.55
2022-12-15T05:58:18.788Z,33.92
2022-12-15T06:00:22.387Z,34.45
2022-12-15T06:02:25.359Z,34.50
2022-12-15T06:04:29.623Z,31.00
2022-12-15T06:06:32.556Z,34.53
2022-12-15T06:08:36.926Z,35.65
2022-12-15T06:10:39.684Z,33.53
2022-12-15T06:12:42.418Z,36.33
2022-12-15T06:14:45.241Z,37.60
2022-12-15T06:16:49.974Z,34.58
2022-12-15T06:18:56.655Z,33.17
2022-12-15T06:21:02.339Z,33.55
2022-12-15T06:23:05.128Z,38.38
2022-12-15T06:25:08.821Z,37.15
2022-12-15T06:27:11.625Z,34.80
2022-12-15T06:29:15.473Z,37.22
2022-12-15T06:31:22.559Z,34.88
2022-12-15T06:33:25.428Z,37.85
2022-12-15T06:35:28.218Z,32.42
2022-12-15T06:37:32.408Z,38.92
2022-12-15T06:39:35.233Z,42.25
2022-12-15T06:41:38.556Z,34.53
2022-12-15T06:43:42.023Z,36.47
2022-12-15T06:45:49.848Z,35.72
2022-12-15T06:47:56.565Z,34.08
2022-12-15T06:50:03.954Z,32.55
2022-12-15T06:52:06.973Z,35.70
2022-12-15T06:54:12.123Z,34.08
2022-12-15T06:56:18.567Z,33.90
2022-12-15T06:58:21.472Z,37.78
2022-12-15T07:00:24.666Z,33.60
2022-12-15T07:02:29.920Z,36.25
2022-12-15T07:04:33.259Z,37.42
2022-12-15T07:06:37.523Z,37.47
2022-12-15T07:08:42.011Z,33.35
2022-12-15T07:10:46.221Z,33.00
2022-12-15T07:12:49.120Z,32.88
2022-12-15T07:14:53.720Z,28.10
2022-12-15T07:16:56.753Z,35.88
2022-12-15T07:18:59.668Z,37.60
2022-12-15T07:21:04.359Z,36.22
2022-12-15T07:23:09.642Z,30.80
2022-12-15T07:25:12.500Z,37.80
2022-12-15T07:27:18.063Z,35.40
2022-12-15T07:29:23.492Z,33.88
2022-12-15T07:31:27.126Z,36.63
2022-12-15T07:33:31.321Z,45.17
2022-12-15T07:35:34.464Z,36.00
2022-12-15T07:37:37.380Z,32.40
2022-12-15T07:39:40.300Z,32.70
2022-12-15T07:41:43.191Z,41.85
2022-12-15T07:43:48.532Z,37.40
2022-12-15T07:45:55.267Z,36.25
2022-12-15T07:47:58.151Z,37.25
2022-12-15T07:50:01.154Z,36.92
2022-12-15T07:52:04.384Z,39.17
2022-12-15T07:54:07.249Z,38.88
2022-12-15T07:56:10.665Z,35.72
2022-12-15T07:58:13.605Z,42.08
2022-12-15T08:00:19.418Z,40.60
2022-12-15T08:02:22.644Z,42.45
2022-12-15T08:04:25.682Z,41.33
2022-12-15T08:06:28.890Z,50.38
2022-12-15T08:08:32.522Z,53.25
2022-12-15T08:10:35.852Z,48.60
2022-12-15T08:12:38.703Z,48.78
2022-12-15T08:14:41.538Z,49.40
2022-12-15T08:16:46.208Z,53.17
2022-12-15T08:18:49.456Z,62.80
2022-12-15T08:20:52.477Z,57.03
2022-12-15T08:22:55.241Z,63.30
2022-12-15T08:24:58.116Z,52.53
2022-12-15T08:27:01.038Z,51.95
2022-12-15T08:29:48.925Z,52.58
2022-12-15T08:31:28.831Z,62.33
2022-12-15T08:33:34.245Z,60.08
2022-12-15T08:35:56.188Z,54.05
2022-12-15T08:38:05.726Z,55.47
2022-12-15T08:40:10.789Z,52.78
2022-12-15T08:42:13.877Z,46.80
2022-12-15T08:44:17.279Z,51.30
2022-12-15T08:46:22.260Z,48.88
2022-12-15T08:48:25.174Z,45.40
2022-12-15T08:50:29.289Z,49.70
2022-12-15T08:52:32.144Z,46.22
2022-12-15T08:54:35.113Z,44.17
2022-12-15T08:56:37.932Z,53.60
2022-12-15T08:58:41.183Z,43.10
2022-12-15T09:00:43.982Z,47.65
2022-12-15T09:02:47.000Z,45.28
2022-12-15T09:04:50.978Z,47.58
2022-12-15T09:06:58.680Z,48.70
2022-12-15T09:09:03.410Z,47.45
2022-12-15T09:11:07.034Z,35.95
2022-12-15T09:13:09.889Z,44.47
2022-12-15T09:15:12.716Z,43.75
2022-12-15T09:17:15.996Z,40.08
2022-12-15T09:19:19.075Z,36.58
2022-12-15T09:21:23.789Z,36.90
2022-12-15T09:23:28.239Z,37.72
2022-12-15T09:25:31.472Z,37.85
2022-12-15T09:27:35.328Z,39.63
2022-12-15T09:29:38.956Z,41.92
2022-12-15T09:31:44.580Z,45.20
2022-12-15T09:33:47.910Z,36.63
2022-12-15T09:35:51.502Z,38.78
2022-12-15T09:37:54.409Z,39.33
2022-12-15T09:39:58.551Z,39.80
2022-12-15T09:42:02.030Z,41.70
2022-12-15T09:44:08.156Z,40.88
2022-12-15T09:46:22.785Z,39.72
2022-12-15T09:48:31.158Z,39.15
2022-12-15T09:50:38.332Z,39.28
2022-12-15T09:52:48.767Z,36.15
2022-12-15T09:54:51.757Z,38.40
2022-12-15T09:56:58.939Z,41.17
2022-12-15T09:59:07.113Z,39.65
2022-12-15T10:01:17.804Z,35.80
2022-12-15T10:03:40.282Z,38.47
2022-12-15T10:06:15.392Z,38.60
2022-12-15T10:08:17.930Z,41.40
2022-12-15T10:10:26.489Z,35.50
2022-12-15T10:12:36.441Z,35.80
2022-12-15T10:14:43.990Z,40.70
2022-12-15T10:16:55.355Z,41.35
2022-12-15T10:19:08.078Z,41.53
2022-12-15T10:21:14.036Z,39.10
2022-12-15T10:23:18.616Z,41.20
2022-12-15T10:25:29.822Z,38.67
2022-12-15T10:27:59.753Z,38.70
2022-12-15T10:30:05.380Z,39.53
2022-12-15T10:32:17.649Z,39.40
2022-12-15T10:34:26.897Z,40.50
2022-12-15T10:36:29.778Z,41.47
2022-12-15T10:38:37.695Z,39.17
2022-12-15T10:43:16.509Z,44.22
2022-12-15T10:45:36.103Z,39.70
2022-12-15T10:47:38.888Z,39.50
2022-12-15T10:49:41.722Z,39.63
2022-12-15T10:51:46.106Z,38.35
2022-12-15T10:53:51.025Z,41.22
2022-12-15T10:58:04.964Z,42.33
2022-12-15T11:00:28.842Z,39.70
2022-12-15T11:02:34.475Z,39.35
2022-12-15T11:04:37.785Z,46.80
2022-12-15T11:06:43.399Z,42.75
2022-12-15T11:08:47.388Z,45.95
2022-12-15T11:11:10.110Z,42.07
2022-12-15T11:13:16.475Z,45.65
2022-12-15T11:15:45.259Z,46.92
2022-12-15T11:17:56.767Z,48.40
2022-12-15T11:20:04.195Z,49.35
2022-12-15T11:22:15.787Z,51.47
2022-12-15T11:24:35.049Z,54.22
2022-12-15T11:26:48.981Z,55.20
2022-12-15T11:28:57.536Z,57.35
2022-12-15T11:31:10.633Z,61.25
2022-12-15T11:33:14.095Z,55.55
2022-12-15T11:35:23.012Z,62.60
2022-12-15T11:37:37.983Z,63.47
2022-12-15T11:40:01.876Z,64.32
2022-12-15T11:42:14.647Z,64.57
2022-12-15T11:44:25.669Z,70.25
2022-12-15T11:46:35.791Z,56.85
2022-12-15T11:48:48.859Z,66.25
2022-12-15T11:51:00.381Z,59.58
2022-12-15T11:53:16.041Z,60.55
2022-12-15T11:58:03.741Z,63.17
2022-12-15T12:00:09.821Z,61.38
2022-12-15T12:02:35.694Z,82.45
2022-12-15T12:04:44.617Z,64.10
2022-12-15T12:07:01.984Z,58.15
2022-12-15T12:09:19.668Z,58.63
2022-12-15T12:11:28.561Z,66.65
2022-12-15T12:13:40.927Z,60.65
2022-12-15T12:15:55.548Z,62.95
2022-12-15T12:18:07.161Z,60.88
2022-12-15T12:20:19.291Z,61.08
2022-12-15T12:22:26.905Z,62.53
2022-12-15T12:24:33.683Z,59.83
2022-12-15T12:26:39.857Z,70.55
2022-12-15T12:28:48.732Z,61.00
2022-12-15T12:30:56.745Z,58.85
2022-12-15T12:33:09.932Z,60.92
2022-12-15T12:35:31.563Z,63.83
2022-12-15T12:37:41.989Z,65.70
2022-12-15T12:39:45.899Z,62.13
2022-12-15T12:41:53.063Z,60.40
2022-12-15T12:43:58.171Z,52.80
2022-12-15T12:46:07.967Z,60.25
2022-12-15T12:48:19.227Z,58.20
2022-12-15T12:50:25.017Z,54.65
2022-12-15T12:52:31.894Z,60.38
2022-12-15T12:54:42.522Z,62.08
2022-12-15T12:56:48.691Z,57.03
2022-12-15T12:58:53.610Z,59.38
2022-12-15T13:01:07.330Z,61.00
2022-12-15T13:03:21.972Z,62.20
2022-12-15T13:05:31.237Z,60.50
2022-12-15T13:07:36.282Z,62.70
2022-12-15T13:09:41.713Z,61.42
2022-12-15T13:12:14.865Z,67.45
2022-12-15T13:14:35.346Z,60.83
2022-12-15T13:16:40.454Z,64.75
2022-12-15T13:19:04.665Z,65.18
2022-12-15T13:21:35.943Z,59.20
2022-12-15T13:23:42.384Z,58.58
2022-12-15T13:25:51.819Z,65.13
2022-12-15T13:28:00.857Z,58.67
2022-12-15T13:30:15.772Z,60.00
2022-12-15T13:32:29.040Z,60.33
2022-12-15T13:34:39.651Z,56.85
2022-12-15T13:36:57.776Z,61.35
2022-12-15T13:39:00.608Z,57.78
2022-12-15T13:41:23.496Z,57.58
2022-12-15T13:43:42.121Z,58.15
2022-12-15T13:48:39.637Z,57.25
2022-12-15T13:50:52.249Z,59.15
2022-12-15T13:55:27.883Z,59.67
2022-12-15T13:57:35.298Z,66.07
2022-12-15T13:59:45.054Z,55.72
2022-12-15T14:01:52.495Z,58.00
2022-12-15T14:04:00.019Z,52.75
2022-12-15T14:06:05.226Z,56.28
2022-12-15T14:08:14.559Z,54.15
2022-12-15T14:10:20.664Z,52.60
2022-12-15T14:12:24.573Z,53.78
2022-12-15T14:14:30.292Z,53.72
2022-12-15T14:16:36.187Z,51.35
2022-12-15T14:18:40.777Z,52.45
2022-12-15T14:20:43.842Z,49.95
2022-12-15T14:22:50.411Z,52.60
2022-12-15T14:25:00.608Z,59.78
2022-12-15T14:27:03.430Z,50.22
2022-12-15T14:29:07.110Z,51.65
2022-12-15T14:31:15.863Z,48.05
2022-12-15T14:33:20.738Z,49.13
2022-12-15T14:35:32.950Z,57.00
2022-12-15T14:37:35.889Z,50.33
2022-12-15T14:39:43.403Z,54.80
2022-12-15T14:41:49.151Z,50.15
2022-12-15T14:44:31.764Z,51.97
2022-12-15T14:46:19.034Z,58.08
2022-12-15T14:50:51.913Z,60.20
2022-12-15T14:53:00.364Z,49.22
2022-12-15T14:55:25.863Z,53.33
2022-12-15T14:57:38.801Z,49.17
2022-12-15T14:59:44.650Z,46.35
2022-12-15T15:01:58.682Z,50.60
2022-12-15T15:03:04.489Z,37.30
2022-12-15T15:03:13.715Z,65.70
2022-12-15T15:03:15.994Z,59.25
2022-12-15T15:04:03.554Z,53.33
2022-12-15T15:06:17.460Z,51.30
2022-12-15T15:08:27.008Z,51.10
2022-12-15T15:10:31.636Z,52.15
2022-12-15T15:12:45.065Z,53.42
2022-12-15T15:14:51.020Z,52.55
2022-12-15T15:17:03.312Z,48.13
2022-12-15T15:19:06.461Z,51.72
2022-12-15T15:21:19.520Z,50.85
2022-12-15T15:23:22.446Z,49.20
2022-12-15T15:25:28.912Z,49.20
2022-12-15T15:27:40.481Z,49.47
2022-12-15T15:29:43.248Z,51.45
2022-12-15T15:31:46.524Z,52.70
2022-12-15T15:33:49.349Z,51.20
2022-12-15T15:35:54.433Z,51.80
2022-12-15T15:38:03.532Z,54.30
2022-12-15T15:40:11.508Z,47.25
2022-12-15T15:42:14.342Z,48.30
2022-12-15T15:44:18.554Z,49.78
2022-12-15T15:46:23.665Z,53.03
2022-12-15T15:48:29.891Z,51.03
2022-12-15T15:50:32.980Z,55.22
2022-12-15T15:52:35.777Z,53.67
2022-12-15T15:54:38.635Z,52.97
2022-12-15T15:56:43.927Z,49.88
2022-12-15T15:58:47.783Z,49.92
2022-12-15T16:00:53.448Z,51.20
2022-12-15T16:02:56.346Z,48.97
2022-12-15T16:04:59.224Z,48.28
2022-12-15T16:07:02.083Z,46.63
2022-12-15T16:09:07.379Z,50.72
2022-12-15T16:11:11.964Z,52.10
2022-12-15T16:13:23.970Z,53.08
2022-12-15T16:15:31.443Z,48.47
2022-12-15T16:17:35.730Z,49.20
2022-12-15T16:19:39.873Z,49.67
2022-12-15T16:21:44.181Z,45.33
2022-12-15T16:23:49.500Z,47.97
2022-12-15T16:25:54.972Z,53.05
2022-12-15T16:27:58.394Z,50.13
2022-12-15T16:30:01.199Z,52.53
2022-12-15T16:32:05.914Z,45.80
2022-12-15T16:34:10.133Z,46.35
2022-12-15T16:36:14.226Z,46.10
2022-12-15T16:38:20.667Z,45.92
2022-12-15T16:40:26.592Z,52.80
2022-12-15T16:42:29.386Z,50.47
2022-12-15T16:44:32.298Z,50.47
2022-12-15T16:46:35.142Z,43.63
2022-12-15T16:48:38.932Z,59.88
2022-12-15T16:50:45.205Z,45.60
2022-12-15T16:52:50.918Z,51.70
2022-12-15T16:54:53.694Z,49.65
2022-12-15T16:56:58.258Z,48.28
2022-12-15T16:59:31.349Z,50.47
2022-12-15T17:01:24.271Z,52.22
2022-12-15T17:03:27.623Z,48.47
2022-12-15T17:05:33.462Z,51.38
2022-12-15T17:07:38.685Z,48.55
2022-12-15T17:09:41.560Z,52.30
2022-12-15T17:11:44.482Z,56.08
2022-12-15T17:13:51.073Z,47.97
2022-12-15T17:15:54.293Z,47.88
2022-12-15T17:17:57.147Z,50.97
2022-12-15T17:22:23.741Z,48.00
2022-12-15T17:24:28.183Z,51.75
2022-12-15T17:26:33.641Z,51.20
2022-12-15T17:28:37.574Z,47.85
2022-12-15T17:30:40.477Z,54.70
2022-12-15T17:32:43.693Z,53.88
2022-12-15T17:34:46.507Z,50.85
2022-12-15T17:36:49.374Z,45.45
2022-12-15T17:38:56.109Z,51.38
2022-12-15T17:41:02.766Z,48.45
2022-12-15T17:43:12.800Z,49.17
2022-12-15T17:45:18.318Z,49.67
2022-12-15T17:47:21.412Z,44.97
2022-12-15T17:49:24.213Z,42.58
2022-12-15T17:51:27.065Z,49.22
2022-12-15T17:53:30.709Z,52.28
2022-12-15T17:55:35.571Z,45.70
2022-12-15T17:57:39.760Z,50.65
2022-12-15T17:59:42.718Z,49.95
2022-12-15T18:01:45.899Z,53.58
2022-12-15T18:03:49.028Z,43.97
2022-12-15T18:05:53.485Z,54.00
2022-12-15T18:07:58.145Z,47.13
2022-12-15T18:10:01.679Z,46.75
2022-12-15T18:12:04.763Z,45.83
2022-12-15T18:14:13.762Z,47.25
2022-12-15T18:16:16.559Z,43.78
2022-12-15T18:18:21.152Z,49.47
2022-12-15T18:20:24.677Z,45.85
2022-12-15T18:22:27.563Z,45.25
2022-12-15T18:24:30.520Z,47.20
2022-12-15T18:26:37.792Z,47.72
2022-12-15T18:28:40.768Z,51.10
2022-12-15T18:30:44.984Z,49.45
2022-12-15T18:32:48.501Z,48.13
2022-12-15T18:34:51.492Z,42.72
2022-12-15T18:36:54.292Z,50.65
2022-12-15T18:38:57.008Z,42.65
2022-12-15T18:41:01.205Z,46.28
2022-12-15T18:43:04.091Z,44.90
2022-12-15T18:45:21.942Z,46.72
2022-12-15T18:47:26.303Z,41.10
2022-12-15T18:49:29.226Z,43.35
2022-12-15T18:51:32.905Z,47.25
2022-12-15T18:53:37.851Z,39.22
2022-12-15T18:57:43.452Z,41.35
2022-12-15T18:59:46.299Z,42.92
2022-12-15T19:01:49.810Z,44.47
2022-12-15T19:03:54.165Z,40.17
2022-12-15T19:06:00.309Z,47.45
2022-12-15T19:08:09.871Z,47.42
2022-12-15T19:10:15.273Z,44.67
2022-12-15T19:12:18.611Z,46.13
2022-12-15T19:14:35.323Z,48.20
2022-12-15T19:16:52.063Z,45.53
2022-12-15T19:19:17.227Z,47.72
2022-12-15T19:21:39.985Z,40.95
2022-12-15T19:23:42.875Z,45.88
2022-12-15T19:25:47.517Z,46.35
2022-12-15T19:27:50.431Z,46.63
2022-12-15T19:29:53.702Z,46.78
2022-12-15T19:31:56.560Z,48.20
2022-12-15T19:34:01.495Z,41.72
2022-12-15T19:38:08.667Z,50.25
2022-12-15T19:40:19.506Z,43.95
2022-12-15T19:42:30.992Z,48.03
2022-12-15T19:44:33.983Z,46.25
2022-12-15T19:46:36.965Z,48.47
2022-12-15T19:48:39.832Z,50.60
2022-12-15T19:50:44.382Z,42.80
2022-12-15T19:52:49.616Z,45.80
2022-12-15T19:54:52.476Z,44.28
2022-12-15T19:56:55.350Z,45.00
2022-12-15T19:58:59.066Z,45.63
2022-12-15T20:01:03.619Z,41.20
2022-12-15T20:03:06.688Z,42.08
2022-12-15T20:05:09.899Z,50.90
2022-12-15T20:07:19.593Z,45.17
2022-12-15T20:09:22.380Z,45.83
2022-12-15T20:11:26.787Z,40.28
2022-12-15T20:13:30.381Z,45.33
2022-12-15T20:15:33.574Z,45.88
2022-12-15T20:17:36.380Z,49.80
2022-12-15T20:19:39.246Z,45.85
2022-12-15T20:21:42.757Z,44.05
2022-12-15T20:23:55.628Z,49.20
2022-12-15T20:25:59.571Z,44.92
2022-12-15T20:28:03.055Z,48.22
2022-12-15T20:30:07.997Z,43.10
2022-12-15T20:34:20.594Z,42.97
2022-12-15T20:36:26.505Z,46.83
2022-12-15T20:38:32.834Z,46.97
2022-12-15T20:40:37.710Z,46.38
2022-12-15T20:42:40.639Z,48.67
2022-12-15T20:44:46.265Z,41.10
2022-12-15T20:46:49.503Z,45.03
2022-12-15T20:48:53.996Z,42.15
2022-12-15T20:50:57.108Z,41.53
2022-12-15T20:53:03.522Z,39.72
2022-12-15T20:55:07.618Z,42.35
2022-12-15T20:57:12.082Z,40.58
2022-12-15T20:59:15.897Z,45.95
2022-12-15T21:01:21.797Z,42.20
2022-12-15T21:03:27.615Z,42.13
2022-12-15T21:05:32.579Z,41.90
2022-12-15T21:09:38.756Z,47.83
2022-12-15T21:11:42.578Z,43.83
2022-12-15T21:13:49.046Z,41.90
2022-12-15T21:15:52.114Z,44.45
2022-12-15T21:18:19.793Z,38.85
2022-12-15T21:20:20.122Z,43.45
2022-12-15T21:22:25.372Z,39.97
2022-12-15T21:24:29.672Z,40.83
2022-12-15T21:26:32.759Z,37.45
2022-12-15T21:28:36.057Z,38.30
2022-12-15T21:30:44.190Z,43.60
2022-12-15T21:32:47.687Z,40.65
2022-12-15T21:34:51.777Z,39.30
2022-12-15T21:36:55.601Z,38.35
2022-12-15T21:38:59.216Z,38.92
2022-12-15T21:41:03.900Z,36.00
2022-12-15T21:43:07.984Z,41.30
2022-12-15T21:45:15.478Z,36.65
2022-12-15T21:47:26.188Z,37.30
2022-12-15T21:49:28.086Z,41.28
2022-12-15T21:51:35.776Z,37.40
2022-12-15T21:53:41.365Z,38.80
2022-12-15T21:55:46.899Z,42.60
2022-12-15T21:57:50.174Z,41.65
2022-12-15T21:59:55.195Z,35.42
2022-12-15T22:01:58.213Z,36.05
2022-12-15T22:04:05.269Z,34.75
2022-12-15T22:06:18.565Z,34.22
2022-12-15T22:08:23.036Z,35.85
2022-12-15T22:10:29.252Z,35.33
2022-12-15T22:12:32.284Z,32.05
2022-12-15T22:14:43.180Z,34.38
2022-12-15T22:16:46.037Z,37.83
2022-12-15T22:18:52.282Z,36.35
2022-12-15T22:20:59.054Z,34.05
2022-12-15T22:23:02.405Z,35.72
2022-12-15T22:25:06.108Z,33.42
2022-12-15T22:27:22.557Z,36.53
2022-12-15T22:29:27.102Z,35.33
2022-12-15T22:31:30.761Z,33.08
2022-12-15T22:33:33.760Z,32.90
2022-12-15T22:35:36.812Z,34.40
2022-12-15T22:37:41.239Z,34.08
2022-12-15T22:39:46.750Z,32.05
2022-12-15T22:41:53.751Z,34.83
2022-12-15T22:43:57.935Z,35.17
2022-12-15T22:46:04.416Z,31.88
2022-12-15T22:48:07.689Z,34.63
2022-12-15T22:50:18.566Z,35.15
2022-12-15T22:52:22.625Z,32.80
2022-12-15T22:54:28.832Z,31.03
2022-12-15T22:56:38.127Z,34.03
2022-12-15T22:58:44.293Z,33.20
2022-12-15T23:00:47.163Z,29.90
2022-12-15T23:02:50.537Z,36.28
2022-12-15T23:04:53.654Z,27.90
2022-12-15T23:06:58.354Z,35.03
2022-12-15T23:09:01.115Z,35.53
2022-12-15T23:11:22.605Z,33.85
2022-12-15T23:13:25.355Z,32.08
2022-12-15T23:15:47.389Z,35.97
2022-12-15T23:17:50.207Z,34.55
2022-12-15T23:19:53.184Z,36.45
2022-12-15T23:21:56.123Z,32.60
2022-12-15T23:23:59.109Z,35.53
2022-12-15T23:26:02.316Z,37.42
2022-12-15T23:28:06.474Z,32.00
2022-12-15T23:30:13.545Z,30.15
2022-12-15T23:32:16.352Z,32.42
2022-12-15T23:34:20.669Z,34.88
2022-12-15T23:36:23.514Z,30.05
2022-12-15T23:38:27.577Z,37.72
2022-12-15T23:40:30.482Z,30.00
2022-12-15T23:42:33.549Z,31.85
2022-12-15T23:44:38.410Z,36.75
2022-12-15T23:46:41.288Z,32.95
2022-12-15T23:48:44.742Z,36.33
2022-12-15T23:50:47.606Z,31.58
2022-12-15T23:52:51.824Z,32.50
2022-12-15T23:54:55.006Z,32.10
2022-12-15T23:56:58.160Z,31.52
2022-12-15T23:59:01.025Z,35.03
